Capitol Logistics 461


KRIV
March Air Reserve Base
Riverside, California, US
KRFD
Chicago/Rockford International Airport
Rockford, Illinois, US

Activity Log

Date Flight Route Aircraft Duration
09/14/2019 CPX461 SKYES4 TRM J78 PKE J96 IRK J232 MZV RFD B738 3h 31m
01/07/2019 CPX219 TRM J78 PKE J96 IRK J232 MZV RFD B763 3h 10m

Route Details

Aircraft Information
Primary: Boeing 737-800BCF
Backup: Not Available
Route Data
Distance: 1417nm
Sched. Duration: 3h 20m
Avg. Duration: 3h 20m (+1m)
Times Flown: 2
Recm'd Route: TRM J236 TBC J128 HBU J146 IOW RFD
Planned Altitude: 33,000ft
Origin Wx: KRIV 271556Z AUTO 06009KT 10SM CLR 19/M09 A3021 RMK AO2 SLP222 T01891092
Dest. Wx: KRFD 271554Z 29012KT 10SM FEW024 FEW250 M02/M09 A3009 RMK AO2 SNE02 SLP198 P0000 T10221089
Notes:

Financial History
Total Freight: 157,281lbs
Average Load: 78,641lbs/flt
Fuel Used: 55,829lbs
Avg. Fuel Used: 27,915lbs/flt
Fuel Expense: $38,522
Avg. Fuel Expense: $19,261
Avg. Fuel Cost: $0.69/lbs
Total Gross Income: $239,067
Pilot Pay: $458
Total Expenses: $25,923
Total Revenue: $173,056
Average Revenue: $119,533.56